Time;durP1;ratioP1;P1;durP2;ratioP2;P2;SDS_P1;SDS_P2;PMS_P1;PMS_P2;Temp;Humidity;BMP_temperature;BMP_pressure;BME280_temperature;BME280_humidity;BME280_pressure;Samples;Min_cycle;Max_cycle;Signal;HPM_P1;HPM_P2
2023/08/28 00:01:03;;;;;;;;;;;14.70;99.90;;;;;;8377643;28;19929;-68
2023/08/28 00:05:05;;;;;;;;;;;14.70;99.90;;;;;;8365363;28;19924;-68
2023/08/28 00:09:07;;;;;;;;;;;14.60;99.90;;;;;;8382081;28;19931;-68
2023/08/28 00:13:09;;;;;;;;;;;14.60;99.90;;;;;;8375540;28;19931;-68
2023/08/28 00:17:11;;;;;;;;;;;14.60;99.90;;;;;;8381992;28;19935;-68
2023/08/28 00:21:12;;;;;;;;;;;14.50;99.90;;;;;;8355039;28;20353;-69
2023/08/28 00:25:14;;;;;;;;;;;14.50;99.90;;;;;;8376496;28;19924;-68
2023/08/28 00:29:16;;;;;;;;;;;14.50;99.90;;;;;;8371944;28;20384;-68
2023/08/28 00:33:18;;;;;;;;;;;14.40;99.90;;;;;;8346372;28;19925;-68
2023/08/28 00:37:20;;;;;;;;;;;14.30;99.90;;;;;;8370605;28;19990;-68
2023/08/28 00:41:21;;;;;;;;;;;14.30;99.90;;;;;;8377575;28;19975;-68
2023/08/28 00:45:23;;;;;;;;;;;14.30;99.90;;;;;;8373251;28;19925;-69
2023/08/28 00:49:26;;;;;;;;;;;14.30;99.90;;;;;;8377558;28;19978;-68
2023/08/28 00:53:27;;;;;;;;;;;14.20;99.90;;;;;;8381958;28;19931;-68
2023/08/28 00:57:29;;;;;;;;;;;14.20;99.90;;;;;;8360099;28;19924;-68
2023/08/28 01:01:31;;;;;;;;;;;14.20;99.90;;;;;;8377570;28;19924;-68
2023/08/28 01:05:39;;;;;;;;;;;14.20;99.90;;;;;;8375938;28;20513;-68
2023/08/28 01:09:54;;;;;;;;;;;14.30;99.90;;;;;;8351231;28;19932;-68
2023/08/28 01:14:04;;;;;;;;;;;14.20;99.90;;;;;;8379309;28;19925;-68
2023/08/28 01:18:07;;;;;;;;;;;14.20;99.90;;;;;;8361417;28;20384;-68
2023/08/28 01:22:28;;;;;;;;;;;14.20;99.90;;;;;;8374607;28;19925;-69
2023/08/28 01:26:30;;;;;;;;;;;14.20;99.90;;;;;;8371051;28;19932;-68
2023/08/28 01:30:32;;;;;;;;;;;14.20;99.90;;;;;;8373362;28;19925;-68
2023/08/28 01:34:34;;;;;;;;;;;14.20;99.90;;;;;;8369933;28;19929;-68
2023/08/28 01:38:41;;;;;;;;;;;14.20;99.90;;;;;;8374818;28;19925;-68
2023/08/28 01:42:44;;;;;;;;;;;14.20;99.90;;;;;;8365531;28;20306;-68
2023/08/28 01:46:46;;;;;;;;;;;14.10;99.90;;;;;;8370694;28;19928;-68
2023/08/28 01:50:48;;;;;;;;;;;14.10;99.90;;;;;;8362253;28;19929;-68
2023/08/28 01:54:50;;;;;;;;;;;14.10;99.90;;;;;;8379124;28;19925;-68
2023/08/28 01:58:55;;;;;;;;;;;14.00;99.90;;;;;;8371194;28;19951;-68
2023/08/28 02:02:57;;;;;;;;;;;14.00;99.90;;;;;;8354314;28;19979;-68
2023/08/28 02:06:58;;;;;;;;;;;14.00;99.90;;;;;;8367289;28;19978;-68
2023/08/28 02:11:00;;;;;;;;;;;14.00;99.90;;;;;;8370992;28;20453;-68
2023/08/28 02:15:02;;;;;;;;;;;13.90;99.90;;;;;;8371014;28;20417;-68
2023/08/28 02:19:04;;;;;;;;;;;13.90;99.90;;;;;;8368945;28;19928;-68
2023/08/28 02:23:06;;;;;;;;;;;13.90;99.90;;;;;;8352144;28;19936;-68
2023/08/28 02:27:07;;;;;;;;;;;13.80;99.90;;;;;;8356263;28;20387;-68
2023/08/28 02:31:09;;;;;;;;;;;13.80;99.90;;;;;;8369802;28;19924;-68
2023/08/28 02:35:14;;;;;;;;;;;13.80;99.90;;;;;;8378515;28;19971;-68
2023/08/28 02:39:15;;;;;;;;;;;13.80;99.90;;;;;;8380468;28;19925;-68
2023/08/28 02:43:17;;;;;;;;;;;13.70;99.90;;;;;;8368973;28;19925;-68
2023/08/28 02:47:18;;;;;;;;;;;13.70;99.90;;;;;;8369655;28;19928;-68
2023/08/28 02:51:20;;;;;;;;;;;13.70;99.90;;;;;;8375108;28;19925;-68
2023/08/28 02:55:22;;;;;;;;;;;13.70;99.90;;;;;;8379438;28;19925;-68
2023/08/28 02:59:24;;;;;;;;;;;13.60;99.90;;;;;;8373841;28;19932;-68
2023/08/28 03:03:25;;;;;;;;;;;13.60;99.90;;;;;;8379676;28;19933;-68
2023/08/28 03:07:27;;;;;;;;;;;13.50;99.90;;;;;;8381997;28;19924;-68
2023/08/28 03:11:28;;;;;;;;;;;13.50;99.90;;;;;;8385099;28;19924;-68
2023/08/28 03:15:31;;;;;;;;;;;13.50;99.90;;;;;;8369936;28;19925;-69
2023/08/28 03:19:32;;;;;;;;;;;13.40;99.90;;;;;;8372571;28;19933;-68
2023/08/28 03:23:34;;;;;;;;;;;13.40;99.90;;;;;;8369231;28;19925;-68
2023/08/28 03:27:36;;;;;;;;;;;13.40;99.90;;;;;;8369907;28;19925;-68
2023/08/28 03:31:37;;;;;;;;;;;13.30;99.90;;;;;;8381918;28;19928;-68
2023/08/28 03:35:39;;;;;;;;;;;13.30;99.90;;;;;;8369849;28;19924;-68
2023/08/28 03:39:40;;;;;;;;;;;13.30;99.90;;;;;;8379068;28;19929;-68
2023/08/28 03:43:42;;;;;;;;;;;13.20;99.90;;;;;;8372819;28;19925;-68
2023/08/28 03:47:44;;;;;;;;;;;13.30;99.90;;;;;;8372413;28;19939;-68
2023/08/28 03:51:46;;;;;;;;;;;13.30;99.90;;;;;;8360442;28;19930;-68
2023/08/28 03:55:48;;;;;;;;;;;13.20;99.90;;;;;;8359186;28;19925;-68
2023/08/28 03:59:49;;;;;;;;;;;13.20;99.90;;;;;;8367669;28;20264;-68
2023/08/28 04:03:51;;;;;;;;;;;13.20;99.90;;;;;;8361706;28;19925;-68
2023/08/28 04:07:53;;;;;;;;;;;13.20;99.90;;;;;;8381197;28;19924;-68
2023/08/28 04:11:54;;;;;;;;;;;13.20;99.90;;;;;;8372995;28;19955;-68
2023/08/28 04:15:57;;;;;;;;;;;13.20;99.90;;;;;;8376456;28;20023;-68
2023/08/28 04:19:58;;;;;;;;;;;13.20;99.90;;;;;;8377474;28;20345;-68
2023/08/28 04:24:00;;;;;;;;;;;13.20;99.90;;;;;;8377164;28;20707;-68
2023/08/28 04:28:02;;;;;;;;;;;13.30;99.90;;;;;;8359416;28;19924;-68
2023/08/28 04:32:04;;;;;;;;;;;13.30;99.90;;;;;;8381310;28;19991;-68
2023/08/28 04:36:05;;;;;;;;;;;13.20;99.90;;;;;;8369988;28;19929;-68
2023/08/28 04:40:07;;;;;;;;;;;13.20;99.90;;;;;;8380878;28;19928;-68
2023/08/28 04:44:10;;;;;;;;;;;13.20;99.90;;;;;;8387101;28;19932;-68
2023/08/28 04:48:12;;;;;;;;;;;13.20;99.90;;;;;;8378859;28;19924;-68
2023/08/28 04:52:13;;;;;;;;;;;13.20;99.90;;;;;;8371208;28;20118;-68
2023/08/28 04:56:15;;;;;;;;;;;13.20;99.90;;;;;;8368177;28;19932;-68
2023/08/28 05:00:17;;;;;;;;;;;13.30;99.90;;;;;;8359666;28;19931;-68
2023/08/28 05:04:19;;;;;;;;;;;13.30;99.90;;;;;;8378631;28;19929;-69
2023/08/28 05:08:20;;;;;;;;;;;13.30;99.90;;;;;;8365238;28;19925;-68
2023/08/28 05:12:22;;;;;;;;;;;13.40;99.90;;;;;;8377471;28;20325;-69
2023/08/28 05:16:24;;;;;;;;;;;13.40;99.90;;;;;;8364856;28;19929;-68
2023/08/28 05:20:25;;;;;;;;;;;13.40;99.90;;;;;;8368748;28;19925;-68
2023/08/28 05:24:27;;;;;;;;;;;13.40;99.90;;;;;;8369275;28;19924;-68
2023/08/28 05:28:31;;;;;;;;;;;13.40;99.90;;;;;;8376499;28;19924;-68
2023/08/28 05:32:33;;;;;;;;;;;13.50;99.90;;;;;;8379554;28;20372;-68
2023/08/28 05:36:35;;;;;;;;;;;13.50;99.90;;;;;;8365446;28;20323;-68
2023/08/28 05:40:37;;;;;;;;;;;13.50;99.90;;;;;;8370214;28;19935;-68
2023/08/28 05:44:38;;;;;;;;;;;13.50;99.90;;;;;;8375392;28;19924;-68
2023/08/28 05:48:40;;;;;;;;;;;13.60;99.90;;;;;;8373009;28;21452;-68
2023/08/28 05:52:42;;;;;;;;;;;13.60;99.90;;;;;;8370480;28;20329;-68
2023/08/28 05:56:43;;;;;;;;;;;13.70;99.90;;;;;;8378159;28;20371;-68
2023/08/28 06:00:46;;;;;;;;;;;13.80;99.90;;;;;;8364600;28;19951;-68
2023/08/28 06:04:48;;;;;;;;;;;13.90;99.90;;;;;;8360945;28;20299;-68
2023/08/28 06:08:52;;;;;;;;;;;13.90;99.90;;;;;;8364435;28;19925;-68
2023/08/28 06:12:53;;;;;;;;;;;14.00;99.90;;;;;;8367358;28;19932;-68
2023/08/28 06:16:55;;;;;;;;;;;14.10;99.90;;;;;;8376579;28;20271;-68
2023/08/28 06:20:57;;;;;;;;;;;14.20;99.90;;;;;;8370411;28;20273;-68
2023/08/28 06:24:59;;;;;;;;;;;14.30;99.90;;;;;;8364415;28;19924;-69
2023/08/28 06:29:03;;;;;;;;;;;14.30;99.90;;;;;;8368031;28;20445;-68
2023/08/28 06:33:04;;;;;;;;;;;14.30;99.90;;;;;;8377614;28;19990;-68
2023/08/28 06:37:06;;;;;;;;;;;14.40;99.90;;;;;;8374561;28;20373;-68
2023/08/28 06:41:08;;;;;;;;;;;14.40;99.90;;;;;;8372682;28;19970;-68
2023/08/28 06:45:10;;;;;;;;;;;14.50;99.90;;;;;;8369926;28;19932;-69
2023/08/28 06:49:11;;;;;;;;;;;14.50;99.90;;;;;;8364338;28;19929;-68
2023/08/28 06:53:13;;;;;;;;;;;14.60;99.90;;;;;;8370885;28;19925;-69
2023/08/28 06:57:15;;;;;;;;;;;14.60;99.90;;;;;;8360395;28;19974;-68
2023/08/28 07:01:16;;;;;;;;;;;14.60;99.90;;;;;;8370262;28;20173;-68
2023/08/28 07:05:18;;;;;;;;;;;14.70;99.90;;;;;;8366741;28;19960;-69
2023/08/28 07:09:20;;;;;;;;;;;14.80;99.90;;;;;;8361164;28;19933;-69
2023/08/28 07:13:21;;;;;;;;;;;14.80;99.90;;;;;;8381414;28;19931;-68
2023/08/28 07:17:23;;;;;;;;;;;14.90;99.90;;;;;;8379210;28;20279;-68
2023/08/28 07:21:25;;;;;;;;;;;15.00;99.90;;;;;;8373221;28;19929;-68
2023/08/28 07:25:27;;;;;;;;;;;15.10;99.90;;;;;;8383435;28;19932;-68
2023/08/28 07:29:29;;;;;;;;;;;15.10;99.90;;;;;;8359601;28;19972;-68
2023/08/28 07:33:31;;;;;;;;;;;15.20;99.90;;;;;;8364343;28;19924;-68
2023/08/28 07:37:33;;;;;;;;;;;15.20;99.90;;;;;;8369283;28;20630;-68
2023/08/28 07:41:35;;;;;;;;;;;15.30;99.90;;;;;;8369519;28;20283;-68
2023/08/28 07:45:36;;;;;;;;;;;15.30;99.90;;;;;;8364295;28;20371;-68
2023/08/28 07:49:38;;;;;;;;;;;15.40;99.90;;;;;;8376493;28;19932;-69
2023/08/28 07:53:40;;;;;;;;;;;15.50;99.90;;;;;;8377363;28;20322;-69
2023/08/28 07:57:42;;;;;;;;;;;15.60;99.90;;;;;;8362523;28;20015;-69
2023/08/28 08:01:43;;;;;;;;;;;15.70;99.90;;;;;;8372548;28;19979;-68
2023/08/28 08:05:45;;;;;;;;;;;15.90;99.90;;;;;;8376075;28;19928;-69
2023/08/28 08:09:46;;;;;;;;;;;16.00;99.90;;;;;;8367963;28;19924;-69
2023/08/28 08:13:48;;;;;;;;;;;16.20;99.90;;;;;;8378867;28;20453;-68
2023/08/28 08:17:50;;;;;;;;;;;16.30;99.90;;;;;;8379034;28;19924;-69
2023/08/28 08:21:51;;;;;;;;;;;16.40;99.90;;;;;;8349561;28;20270;-69
2023/08/28 08:25:54;;;;;;;;;;;16.60;99.90;;;;;;8372243;28;19925;-69
2023/08/28 08:29:56;;;;;;;;;;;16.70;99.90;;;;;;8376362;28;19928;-69
2023/08/28 08:33:57;;;;;;;;;;;16.80;99.90;;;;;;8357274;28;19986;-69
2023/08/28 08:37:59;;;;;;;;;;;17.00;99.90;;;;;;8372027;28;19947;-69
2023/08/28 08:42:01;;;;;;;;;;;17.10;99.90;;;;;;8380123;28;19948;-69
2023/08/28 08:46:07;;;;;;;;;;;17.20;99.90;;;;;;8357475;28;20272;-69
2023/08/28 08:50:10;;;;;;;;;;;17.30;99.90;;;;;;8376983;28;20347;-69
2023/08/28 08:54:17;;;;;;;;;;;17.30;99.90;;;;;;8369322;28;19939;-69
2023/08/28 08:58:18;;;;;;;;;;;17.30;99.90;;;;;;8376884;28;19935;-69
2023/08/28 09:02:21;;;;;;;;;;;17.40;99.90;;;;;;8382045;28;19986;-69
2023/08/28 09:06:25;;;;;;;;;;;17.50;99.90;;;;;;8376075;28;19928;-69
2023/08/28 09:10:26;;;;;;;;;;;17.70;99.90;;;;;;8377121;28;19924;-69
2023/08/28 09:14:28;;;;;;;;;;;17.90;99.90;;;;;;8377960;28;19925;-69
2023/08/28 09:18:30;;;;;;;;;;;17.90;99.90;;;;;;8348174;28;20346;-69
2023/08/28 09:22:32;;;;;;;;;;;17.80;99.90;;;;;;8372571;28;19978;-69
2023/08/28 09:26:50;;;;;;;;;;;17.70;99.90;;;;;;8375270;28;20027;-69
2023/08/28 09:30:51;;;;;;;;;;;17.60;99.90;;;;;;8356715;28;19925;-69
2023/08/28 09:34:53;;;;;;;;;;;17.50;99.90;;;;;;8367276;28;19932;-69
2023/08/28 09:38:59;;;;;;;;;;;17.50;99.90;;;;;;8368209;28;19962;-69
2023/08/28 09:43:08;;;;;;;;;;;17.50;99.90;;;;;;8363925;28;20274;-69
2023/08/28 09:47:09;;;;;;;;;;;17.70;99.90;;;;;;8365348;28;20446;-69
2023/08/28 09:51:11;;;;;;;;;;;17.80;99.90;;;;;;8357899;28;19928;-69
2023/08/28 09:55:13;;;;;;;;;;;18.00;99.90;;;;;;8358961;28;19979;-70
2023/08/28 09:59:15;;;;;;;;;;;18.00;99.90;;;;;;8373372;28;19958;-69
2023/08/28 10:03:19;;;;;;;;;;;18.00;99.90;;;;;;8344235;28;20378;-69
2023/08/28 10:07:22;;;;;;;;;;;17.90;99.90;;;;;;8365420;28;19932;-69
2023/08/28 10:11:30;;;;;;;;;;;18.00;99.90;;;;;;8353162;28;19936;-70
2023/08/28 10:15:33;;;;;;;;;;;18.00;99.90;;;;;;8348557;28;20291;-69
2023/08/28 10:19:53;;;;;;;;;;;18.20;99.90;;;;;;8378636;28;19928;-69
2023/08/28 10:23:55;;;;;;;;;;;18.30;99.90;;;;;;8369753;28;19978;-69
2023/08/28 10:27:58;;;;;;;;;;;18.50;99.90;;;;;;8368053;28;19925;-69
2023/08/28 10:32:00;;;;;;;;;;;18.70;99.90;;;;;;8375956;28;19972;-69
2023/08/28 10:36:01;;;;;;;;;;;18.80;99.90;;;;;;8379315;28;19925;-69
2023/08/28 10:40:03;;;;;;;;;;;18.90;99.90;;;;;;8371502;28;19929;-69
2023/08/28 10:44:06;;;;;;;;;;;18.80;99.90;;;;;;8370011;28;19928;-69
2023/08/28 10:48:08;;;;;;;;;;;18.90;99.90;;;;;;8369026;28;19981;-69
2023/08/28 10:52:10;;;;;;;;;;;19.00;99.90;;;;;;8374984;28;19925;-69
2023/08/28 10:56:12;;;;;;;;;;;19.10;99.90;;;;;;8363897;28;20006;-69
2023/08/28 11:00:15;;;;;;;;;;;19.20;99.90;;;;;;8394161;28;20332;-69
2023/08/28 11:04:17;;;;;;;;;;;19.30;99.90;;;;;;8374840;28;19938;-69
2023/08/28 11:08:20;;;;;;;;;;;19.40;99.90;;;;;;8380488;28;19933;-69
2023/08/28 11:12:21;;;;;;;;;;;19.50;99.90;;;;;;8385330;28;19979;-69
2023/08/28 11:16:25;;;;;;;;;;;19.60;99.90;;;;;;8386381;28;19936;-69
2023/08/28 11:20:27;;;;;;;;;;;19.60;99.90;;;;;;8374466;28;19980;-69
2023/08/28 11:24:30;;;;;;;;;;;19.70;99.90;;;;;;8367371;28;19932;-68
2023/08/28 11:28:45;;;;;;;;;;;19.80;99.90;;;;;;8382127;28;19932;-69
2023/08/28 11:32:51;;;;;;;;;;;19.80;99.90;;;;;;8380122;28;19932;-70
2023/08/28 11:36:53;;;;;;;;;;;19.90;99.90;;;;;;8384947;28;20279;-69
2023/08/28 11:40:57;;;;;;;;;;;20.00;99.90;;;;;;8387368;28;19924;-70
2023/08/28 11:44:59;;;;;;;;;;;20.00;99.90;;;;;;8382967;28;19928;-69
2023/08/28 11:49:05;;;;;;;;;;;19.90;99.90;;;;;;8386993;28;19932;-70
2023/08/28 11:53:07;;;;;;;;;;;19.80;99.90;;;;;;8376552;28;19929;-69
2023/08/28 11:57:09;;;;;;;;;;;19.70;99.90;;;;;;8370822;28;19932;-70
2023/08/28 12:01:13;;;;;;;;;;;19.50;99.90;;;;;;8381546;28;20334;-69
2023/08/28 12:05:16;;;;;;;;;;;19.30;99.90;;;;;;8371125;28;20007;-69
2023/08/28 12:09:18;;;;;;;;;;;19.30;99.90;;;;;;8359386;28;20394;-69
2023/08/28 12:13:19;;;;;;;;;;;19.20;99.90;;;;;;8370173;28;19933;-69
2023/08/28 12:17:23;;;;;;;;;;;19.20;99.90;;;;;;8372323;28;19925;-69
2023/08/28 12:21:34;;;;;;;;;;;19.30;99.90;;;;;;8374104;28;20364;-68
2023/08/28 12:25:40;;;;;;;;;;;19.50;99.90;;;;;;8379411;28;19924;-69
2023/08/28 12:29:42;;;;;;;;;;;19.70;99.90;;;;;;8369834;28;20307;-69
2023/08/28 12:33:46;;;;;;;;;;;19.70;99.90;;;;;;8361319;28;19963;-68
2023/08/28 12:37:51;;;;;;;;;;;19.70;99.90;;;;;;8355992;28;19928;-69
2023/08/28 12:41:54;;;;;;;;;;;19.60;99.90;;;;;;8373509;28;20290;-68
2023/08/28 12:45:56;;;;;;;;;;;19.50;99.90;;;;;;8363505;28;20333;-69
2023/08/28 12:49:58;;;;;;;;;;;19.50;99.90;;;;;;8376443;28;19932;-69
2023/08/28 12:54:00;;;;;;;;;;;19.50;99.90;;;;;;8378879;28;20291;-69
2023/08/28 12:58:02;;;;;;;;;;;19.40;99.90;;;;;;8375586;28;19965;-68
2023/08/28 13:02:03;;;;;;;;;;;19.40;99.90;;;;;;8363485;28;19969;-68
2023/08/28 13:06:05;;;;;;;;;;;19.40;99.90;;;;;;8379991;28;19925;-69
2023/08/28 13:10:08;;;;;;;;;;;19.40;99.90;;;;;;8379558;28;21631;-69
2023/08/28 13:14:09;;;;;;;;;;;19.40;99.90;;;;;;8358165;28;19925;-69
2023/08/28 13:18:11;;;;;;;;;;;19.40;99.90;;;;;;8377047;28;19932;-69
2023/08/28 13:22:13;;;;;;;;;;;19.50;99.90;;;;;;8378901;28;20024;-69
2023/08/28 13:26:14;;;;;;;;;;;19.60;99.90;;;;;;8376598;28;19939;-69
2023/08/28 13:30:16;;;;;;;;;;;19.70;99.90;;;;;;8379312;28;19969;-69
2023/08/28 13:34:18;;;;;;;;;;;19.70;99.90;;;;;;8370035;28;20285;-69
2023/08/28 13:38:20;;;;;;;;;;;19.70;99.90;;;;;;8379620;28;20284;-69
2023/08/28 13:42:22;;;;;;;;;;;19.60;99.90;;;;;;8371411;28;20298;-69
2023/08/28 13:46:23;;;;;;;;;;;19.70;99.90;;;;;;8355629;28;19928;-69
2023/08/28 13:50:25;;;;;;;;;;;19.80;99.90;;;;;;8372084;28;20253;-69
2023/08/28 13:54:27;;;;;;;;;;;19.90;99.90;;;;;;8364535;28;19925;-69
2023/08/28 13:58:28;;;;;;;;;;;20.10;99.90;;;;;;8373274;28;19925;-69
2023/08/28 14:02:33;;;;;;;;;;;20.30;99.90;;;;;;8373648;28;19971;-69
2023/08/28 14:06:35;;;;;;;;;;;20.40;99.90;;;;;;8351002;28;20375;-70
2023/08/28 14:10:36;;;;;;;;;;;20.50;99.90;;;;;;8375965;28;19970;-69
2023/08/28 14:14:38;;;;;;;;;;;20.50;99.90;;;;;;8369077;28;19976;-69
2023/08/28 14:18:40;;;;;;;;;;;20.40;99.90;;;;;;8374477;28;19928;-69
2023/08/28 14:22:41;;;;;;;;;;;20.20;99.90;;;;;;8382036;28;19928;-70
2023/08/28 14:26:43;;;;;;;;;;;20.00;99.90;;;;;;8375087;28;19933;-69
2023/08/28 14:30:45;;;;;;;;;;;19.90;99.90;;;;;;8355003;28;19958;-69
2023/08/28 14:34:46;;;;;;;;;;;19.80;99.90;;;;;;8368865;28;20734;-69
2023/08/28 14:38:48;;;;;;;;;;;19.70;99.90;;;;;;8365346;28;19970;-69
2023/08/28 14:42:50;;;;;;;;;;;19.70;99.90;;;;;;8367261;28;19978;-69
2023/08/28 14:46:51;;;;;;;;;;;19.80;99.90;;;;;;8379398;28;19974;-69
2023/08/28 14:50:54;;;;;;;;;;;19.80;99.90;;;;;;8357959;28;19924;-69
2023/08/28 14:54:56;;;;;;;;;;;19.80;99.90;;;;;;8367340;28;19951;-69
2023/08/28 14:58:57;;;;;;;;;;;19.80;99.90;;;;;;8373879;28;19924;-69
2023/08/28 15:02:59;;;;;;;;;;;19.80;99.90;;;;;;8369890;28;20376;-69
2023/08/28 15:07:01;;;;;;;;;;;19.80;99.90;;;;;;8371054;28;19968;-69
2023/08/28 15:11:02;;;;;;;;;;;19.80;99.90;;;;;;8371236;28;19925;-69
2023/08/28 15:15:05;;;;;;;;;;;19.80;99.90;;;;;;8370742;28;19928;-69
2023/08/28 15:19:06;;;;;;;;;;;19.80;99.90;;;;;;8363344;28;19964;-69
2023/08/28 15:23:08;;;;;;;;;;;19.80;99.90;;;;;;8369431;28;19924;-69
2023/08/28 15:27:10;;;;;;;;;;;19.80;99.90;;;;;;8377322;28;20437;-69
2023/08/28 15:31:11;;;;;;;;;;;19.90;99.90;;;;;;8372045;28;19924;-69
2023/08/28 15:35:13;;;;;;;;;;;20.00;99.90;;;;;;8368943;28;19924;-69
2023/08/28 15:39:17;;;;;;;;;;;20.00;99.90;;;;;;8369001;28;19928;-69
2023/08/28 15:43:20;;;;;;;;;;;20.00;99.90;;;;;;8349383;28;19929;-69
2023/08/28 15:47:22;;;;;;;;;;;19.90;99.90;;;;;;8384622;28;20276;-69
2023/08/28 15:51:24;;;;;;;;;;;19.90;99.90;;;;;;8353153;28;19931;-69
2023/08/28 15:55:25;;;;;;;;;;;20.00;99.90;;;;;;8370332;28;19924;-69
2023/08/28 15:59:27;;;;;;;;;;;20.50;99.90;;;;;;8369106;28;19939;-69
2023/08/28 16:03:29;;;;;;;;;;;21.00;99.90;;;;;;8377003;28;19929;-69
2023/08/28 16:07:31;;;;;;;;;;;21.30;99.90;;;;;;8373957;28;19928;-69
2023/08/28 16:11:33;;;;;;;;;;;21.50;99.90;;;;;;8382221;28;20419;-70
2023/08/28 16:15:34;;;;;;;;;;;21.70;99.90;;;;;;8367816;28;20279;-70
2023/08/28 16:19:36;;;;;;;;;;;21.80;99.90;;;;;;8380369;28;20260;-69
2023/08/28 16:23:38;;;;;;;;;;;21.90;99.90;;;;;;8370314;28;20380;-70
2023/08/28 16:27:43;;;;;;;;;;;21.90;99.90;;;;;;8372305;28;19933;-69
2023/08/28 16:31:45;;;;;;;;;;;21.80;99.90;;;;;;8375218;28;19971;-70
2023/08/28 16:35:48;;;;;;;;;;;21.50;99.90;;;;;;8373347;28;19936;-69
2023/08/28 16:39:50;;;;;;;;;;;21.30;99.90;;;;;;8377664;28;19940;-70
2023/08/28 16:43:51;;;;;;;;;;;21.20;99.90;;;;;;8382620;28;19939;-70
2023/08/28 16:47:53;;;;;;;;;;;21.20;99.90;;;;;;8375816;28;19936;-70
2023/08/28 16:51:55;;;;;;;;;;;21.10;99.90;;;;;;8380111;28;19924;-70
2023/08/28 16:55:56;;;;;;;;;;;21.10;99.90;;;;;;8375170;28;19925;-70
2023/08/28 16:59:58;;;;;;;;;;;20.90;99.90;;;;;;8370667;28;19924;-70
2023/08/28 17:09:09;;;;;;;;;;;20.50;99.90;;;;;;8369448;28;19939;-70
2023/08/28 17:13:11;;;;;;;;;;;20.40;99.90;;;;;;8372087;28;19939;-70
2023/08/28 17:17:12;;;;;;;;;;;20.30;99.90;;;;;;8372460;28;19947;-70
2023/08/28 17:21:14;;;;;;;;;;;20.30;99.90;;;;;;8378914;28;19936;-71
2023/08/28 17:25:16;;;;;;;;;;;20.20;99.90;;;;;;8377016;28;19924;-70
2023/08/28 17:29:18;;;;;;;;;;;20.20;99.90;;;;;;8353417;28;19928;-70
2023/08/28 17:33:21;;;;;;;;;;;20.10;99.90;;;;;;8371093;28;19924;-70
2023/08/28 17:37:23;;;;;;;;;;;20.10;99.90;;;;;;8372598;28;19924;-70
2023/08/28 17:41:24;;;;;;;;;;;20.10;99.90;;;;;;8355353;28;20356;-70
2023/08/28 17:45:26;;;;;;;;;;;20.00;99.90;;;;;;8369156;28;19985;-70
2023/08/28 17:49:28;;;;;;;;;;;20.00;99.90;;;;;;8380390;28;20576;-70
2023/08/28 17:53:30;;;;;;;;;;;20.00;99.90;;;;;;8379927;28;20379;-70
2023/08/28 17:57:31;;;;;;;;;;;20.00;99.90;;;;;;8372102;28;19936;-70
2023/08/28 18:01:33;;;;;;;;;;;19.90;99.90;;;;;;8374845;28;19986;-70
2023/08/28 18:05:35;;;;;;;;;;;19.90;99.90;;;;;;8350916;28;19929;-70
2023/08/28 18:14:19;;;;;;;;;;;19.90;99.90;;;;;;8371440;28;19986;-70
2023/08/28 18:18:20;;;;;;;;;;;19.80;99.90;;;;;;8376577;28;20325;-70
2023/08/28 18:22:22;;;;;;;;;;;19.70;99.90;;;;;;8367567;28;19956;-70
2023/08/28 18:26:24;;;;;;;;;;;19.70;99.90;;;;;;8372980;28;19940;-70
2023/08/28 18:30:25;;;;;;;;;;;19.70;99.90;;;;;;8372781;28;19932;-70
2023/08/28 18:34:27;;;;;;;;;;;19.60;99.90;;;;;;8363153;28;19947;-70
2023/08/28 18:38:29;;;;;;;;;;;19.60;99.90;;;;;;8374668;28;19925;-69
2023/08/28 18:42:30;;;;;;;;;;;19.50;99.90;;;;;;8379180;28;20011;-69
2023/08/28 18:46:33;;;;;;;;;;;19.40;99.90;;;;;;8370282;28;19929;-70
2023/08/28 18:50:34;;;;;;;;;;;19.40;99.90;;;;;;8380013;28;19928;-69
2023/08/28 18:54:36;;;;;;;;;;;19.30;99.90;;;;;;8369096;28;19925;-69
2023/08/28 18:58:37;;;;;;;;;;;19.20;99.90;;;;;;8369073;28;19925;-70
2023/08/28 19:02:39;;;;;;;;;;;19.10;99.90;;;;;;8375467;28;19932;-69
2023/08/28 19:06:41;;;;;;;;;;;19.10;99.90;;;;;;8375733;28;19936;-69
2023/08/28 19:10:42;;;;;;;;;;;19.00;99.90;;;;;;8379035;28;19978;-69
2023/08/28 19:14:44;;;;;;;;;;;19.00;99.90;;;;;;8375041;28;19935;-70
2023/08/28 19:18:46;;;;;;;;;;;18.90;99.90;;;;;;8368650;28;19932;-69
2023/08/28 19:22:48;;;;;;;;;;;18.80;99.90;;;;;;8387159;28;19925;-69
2023/08/28 19:26:49;;;;;;;;;;;18.80;99.90;;;;;;8375863;28;19929;-69
2023/08/28 19:30:51;;;;;;;;;;;18.70;99.90;;;;;;8383328;28;20310;-70
2023/08/28 19:34:52;;;;;;;;;;;18.60;99.90;;;;;;8377042;28;19971;-69
2023/08/28 19:38:54;;;;;;;;;;;18.40;99.90;;;;;;8382989;28;19972;-69
2023/08/28 19:42:56;;;;;;;;;;;18.30;99.90;;;;;;8378729;28;19940;-69
2023/08/28 19:46:57;;;;;;;;;;;18.20;99.90;;;;;;8374302;28;19951;-69
2023/08/28 19:50:59;;;;;;;;;;;18.10;99.90;;;;;;8377349;28;19928;-69
2023/08/28 19:55:04;;;;;;;;;;;18.00;99.90;;;;;;8378411;28;19932;-69
2023/08/28 19:59:06;;;;;;;;;;;17.90;99.90;;;;;;8372792;28;19924;-69
2023/08/28 20:03:08;;;;;;;;;;;17.80;99.90;;;;;;8377553;28;20333;-70
2023/08/28 20:07:10;;;;;;;;;;;17.80;99.90;;;;;;8364702;28;20287;-69
2023/08/28 20:11:11;;;;;;;;;;;17.70;99.90;;;;;;8378190;28;19932;-69
2023/08/28 20:15:15;;;;;;;;;;;17.60;99.90;;;;;;8377424;28;19985;-69
2023/08/28 20:19:17;;;;;;;;;;;17.60;99.90;;;;;;8379392;28;20299;-69
2023/08/28 20:23:18;;;;;;;;;;;17.50;99.90;;;;;;8363401;28;19931;-69
2023/08/28 20:27:20;;;;;;;;;;;17.50;99.90;;;;;;8371031;28;20247;-69
2023/08/28 20:31:22;;;;;;;;;;;17.40;99.90;;;;;;8383922;28;20350;-69
2023/08/28 20:35:24;;;;;;;;;;;17.30;99.90;;;;;;8375247;28;20375;-69
2023/08/28 20:39:27;;;;;;;;;;;17.20;99.90;;;;;;8376168;28;20334;-69
2023/08/28 20:43:29;;;;;;;;;;;17.20;99.90;;;;;;8372820;28;19964;-69
2023/08/28 20:47:37;;;;;;;;;;;17.10;99.90;;;;;;8370609;28;19924;-69
2023/08/28 20:51:39;;;;;;;;;;;17.10;99.90;;;;;;8369433;28;19929;-69
2023/08/28 20:55:40;;;;;;;;;;;17.10;99.90;;;;;;8371097;28;19932;-69
2023/08/28 20:59:42;;;;;;;;;;;17.00;99.90;;;;;;8371834;28;19925;-69
2023/08/28 21:03:44;;;;;;;;;;;17.00;99.90;;;;;;8374514;28;19990;-69
2023/08/28 21:07:45;;;;;;;;;;;17.00;99.90;;;;;;8372611;28;19947;-69
2023/08/28 21:11:47;;;;;;;;;;;16.90;99.90;;;;;;8376046;28;19924;-69
2023/08/28 21:15:49;;;;;;;;;;;16.80;99.90;;;;;;8369556;28;19925;-69
2023/08/28 21:19:51;;;;;;;;;;;16.80;99.90;;;;;;8384374;28;20339;-69
2023/08/28 21:23:56;;;;;;;;;;;16.70;99.90;;;;;;8368135;28;20291;-69
2023/08/28 21:27:57;;;;;;;;;;;16.70;99.90;;;;;;8371401;28;20279;-69
2023/08/28 21:31:59;;;;;;;;;;;16.60;99.90;;;;;;8374468;28;19951;-69
2023/08/28 21:36:04;;;;;;;;;;;16.60;99.90;;;;;;8371970;28;19944;-69
2023/08/28 21:40:06;;;;;;;;;;;16.50;99.90;;;;;;8378726;28;19925;-69
2023/08/28 21:44:09;;;;;;;;;;;16.50;99.90;;;;;;8374267;28;20352;-69
2023/08/28 21:48:11;;;;;;;;;;;16.50;99.90;;;;;;8375291;28;19932;-69
2023/08/28 21:52:13;;;;;;;;;;;16.50;99.90;;;;;;8370859;28;19924;-69
2023/08/28 21:56:14;;;;;;;;;;;16.40;99.90;;;;;;8370962;28;19940;-69
2023/08/28 22:00:16;;;;;;;;;;;16.30;99.90;;;;;;8349506;28;20287;-69
2023/08/28 22:04:18;;;;;;;;;;;16.30;99.90;;;;;;8370178;28;19925;-69
2023/08/28 22:08:19;;;;;;;;;;;16.30;99.90;;;;;;8375454;28;19930;-69
2023/08/28 22:12:21;;;;;;;;;;;16.20;99.90;;;;;;8374968;28;19925;-69
2023/08/28 22:16:23;;;;;;;;;;;16.10;99.90;;;;;;8375643;28;19925;-69
2023/08/28 22:20:26;;;;;;;;;;;16.10;99.90;;;;;;8373392;28;20128;-69
2023/08/28 22:24:28;;;;;;;;;;;16.10;99.90;;;;;;8373036;28;20368;-69
2023/08/28 22:28:30;;;;;;;;;;;16.00;99.90;;;;;;8379918;28;20295;-69
2023/08/28 22:32:31;;;;;;;;;;;16.00;99.90;;;;;;8352306;28;20343;-69
2023/08/28 22:36:33;;;;;;;;;;;15.90;99.90;;;;;;8356388;28;20431;-69
2023/08/28 22:40:35;;;;;;;;;;;15.90;99.90;;;;;;8372070;28;20331;-69
2023/08/28 22:44:36;;;;;;;;;;;15.80;99.90;;;;;;8372057;28;19978;-69
2023/08/28 22:48:38;;;;;;;;;;;15.80;99.90;;;;;;8366111;28;19939;-69
2023/08/28 22:52:40;;;;;;;;;;;15.80;99.90;;;;;;8368216;28;19978;-69
2023/08/28 22:56:42;;;;;;;;;;;15.70;99.90;;;;;;8381156;28;20291;-69
2023/08/28 23:00:47;;;;;;;;;;;15.70;99.90;;;;;;8389479;28;19929;-69
2023/08/28 23:04:51;;;;;;;;;;;15.70;99.90;;;;;;8377286;28;19933;-69
2023/08/28 23:08:53;;;;;;;;;;;15.60;99.90;;;;;;8378618;28;19932;-69
2023/08/28 23:12:54;;;;;;;;;;;15.60;99.90;;;;;;8380626;28;20351;-69
2023/08/28 23:16:56;;;;;;;;;;;15.60;99.90;;;;;;8378239;28;20022;-69
2023/08/28 23:20:58;;;;;;;;;;;15.60;99.90;;;;;;8377959;28;19932;-69
2023/08/28 23:24:59;;;;;;;;;;;15.60;99.90;;;;;;8382889;28;20288;-69
2023/08/28 23:29:01;;;;;;;;;;;15.60;99.90;;;;;;8382175;28;19936;-69
2023/08/28 23:33:03;;;;;;;;;;;15.60;99.90;;;;;;8376084;28;20329;-69
2023/08/28 23:37:08;;;;;;;;;;;15.50;99.90;;;;;;8379280;28;19924;-69